Time;durP1;ratioP1;P1;durP2;ratioP2;P2;SDS_P1;SDS_P2;PMS_P1;PMS_P2;Temp;Humidity;BMP_temperature;BMP_pressure;BME280_temperature;BME280_humidity;BME280_pressure;Samples;Min_cycle;Max_cycle;Signal;HPM_P1;HPM_P2
2022/07/17 00:01:20;0.00;0.00;0.62;0.00;0.00;0.62;3.60;1.80;;;26.00;26.30;;;;;;2226461;62;20437;-61
2022/07/17 00:04:05;0.00;0.00;0.62;0.00;0.00;0.62;2.43;1.53;;;26.00;26.30;;;;;;2226686;62;20427;-62
2022/07/17 00:06:51;0.00;0.00;0.62;0.00;0.00;0.62;2.83;1.87;;;26.00;26.30;;;;;;2226492;62;20370;-61
2022/07/17 00:09:36;0.00;0.00;0.62;0.00;0.00;0.62;4.30;1.70;;;25.90;26.20;;;;;;2225936;62;20355;-62
2022/07/17 00:12:20;0.00;0.00;0.62;0.00;0.00;0.62;2.57;1.80;;;26.00;26.30;;;;;;2226226;62;20399;-62
2022/07/17 00:15:06;0.00;0.00;0.62;0.00;0.00;0.62;2.73;1.70;;;26.00;26.20;;;;;;2226687;62;20614;-62
2022/07/17 00:17:51;0.00;0.00;0.62;0.00;0.00;0.62;3.30;1.60;;;26.00;26.30;;;;;;2226293;62;20417;-62
2022/07/17 00:20:36;0.00;0.00;0.62;0.00;0.00;0.62;2.73;1.77;;;26.00;26.30;;;;;;2226038;62;20474;-62
2022/07/17 00:23:22;0.00;0.00;0.62;0.00;0.00;0.62;2.57;1.63;;;26.00;26.20;;;;;;2226457;62;20401;-62
2022/07/17 00:26:07;0.00;0.00;0.62;0.00;0.00;0.62;2.43;1.67;;;26.00;26.20;;;;;;2226553;62;20431;-62
2022/07/17 00:28:52;0.00;0.00;0.62;0.00;0.00;0.62;4.83;2.00;;;26.00;26.30;;;;;;2226278;62;20402;-62
2022/07/17 00:31:37;0.00;0.00;0.62;0.00;0.00;0.62;5.27;1.70;;;25.90;26.20;;;;;;2226243;62;20645;-62
2022/07/17 00:34:22;0.00;0.00;0.62;0.00;0.00;0.62;2.63;1.37;;;25.90;26.20;;;;;;2226140;62;20650;-62
2022/07/17 00:37:07;0.00;0.00;0.62;0.00;0.00;0.62;4.07;2.20;;;25.90;26.10;;;;;;2226581;62;20627;-61
2022/07/17 00:39:54;0.00;0.00;0.62;0.00;0.00;0.62;4.97;2.37;;;25.90;26.10;;;;;;2226365;62;20383;-62
2022/07/17 00:42:40;0.00;0.00;0.62;0.00;0.00;0.62;3.27;1.77;;;25.80;25.90;;;;;;2225919;62;20370;-62
2022/07/17 00:45:25;0.00;0.00;0.62;0.00;0.00;0.62;2.97;1.70;;;25.80;25.80;;;;;;2226469;62;20370;-62
2022/07/17 00:48:11;0.00;0.00;0.62;0.00;0.00;0.62;6.50;1.90;;;25.70;25.80;;;;;;2226318;62;20759;-62
2022/07/17 00:50:56;0.00;0.00;0.62;0.00;0.00;0.62;3.13;1.40;;;25.70;25.80;;;;;;2226073;62;20386;-62
2022/07/17 00:53:42;0.00;0.00;0.62;0.00;0.00;0.62;3.50;1.40;;;25.60;25.70;;;;;;2226111;62;20371;-61
2022/07/17 00:56:29;0.00;0.00;0.62;0.00;0.00;0.62;3.30;1.77;;;25.50;25.80;;;;;;2226063;62;20386;-61
2022/07/17 00:59:15;0.00;0.00;0.62;0.00;0.00;0.62;4.13;1.70;;;25.50;25.90;;;;;;2226806;62;20447;-62
2022/07/17 01:02:02;0.00;0.00;0.62;0.00;0.00;0.62;4.20;2.17;;;25.40;25.90;;;;;;2226194;62;20785;-61
2022/07/17 01:04:47;0.00;0.00;0.62;0.00;0.00;0.62;3.70;2.00;;;25.40;25.90;;;;;;2225816;62;20446;-64
2022/07/17 01:07:32;0.00;0.00;0.62;0.00;0.00;0.62;9.80;2.30;;;25.30;26.00;;;;;;2226128;62;20354;-62
2022/07/17 01:10:18;0.00;0.00;0.62;0.00;0.00;0.62;4.40;2.10;;;25.30;26.10;;;;;;2226065;62;20407;-61
2022/07/17 01:13:05;0.00;0.00;0.62;0.00;0.00;0.62;13.60;2.40;;;25.20;26.20;;;;;;2226005;62;20414;-62
2022/07/17 01:15:50;0.00;0.00;0.62;0.00;0.00;0.62;4.90;2.10;;;25.20;26.20;;;;;;2226093;62;20570;-62
2022/07/17 01:18:35;0.00;0.00;0.62;0.00;0.00;0.62;2.43;2.03;;;25.20;26.30;;;;;;2225764;62;20366;-61
2022/07/17 01:21:21;0.00;0.00;0.62;0.00;0.00;0.62;4.77;1.83;;;25.20;26.40;;;;;;2226053;62;20382;-61
2022/07/17 01:24:06;0.00;0.00;0.62;0.00;0.00;0.62;4.17;1.63;;;25.20;26.40;;;;;;2225677;62;20700;-62
2022/07/17 01:26:51;0.00;0.00;0.62;0.00;0.00;0.62;3.20;1.87;;;25.20;26.40;;;;;;2225546;62;20731;-63
2022/07/17 01:29:37;0.00;0.00;0.62;0.00;0.00;0.62;2.67;1.60;;;25.20;26.40;;;;;;2226473;62;20370;-61
2022/07/17 01:32:32;0.00;0.00;0.62;0.00;0.00;0.62;4.07;1.57;;;25.10;26.30;;;;;;2226128;62;20705;-62
2022/07/17 01:35:17;0.00;0.00;0.62;0.00;0.00;0.62;3.93;2.00;;;25.10;26.30;;;;;;2225942;62;20370;-63
2022/07/17 01:38:03;0.00;0.00;0.62;0.00;0.00;0.62;2.83;1.50;;;25.10;26.30;;;;;;2225499;62;20443;-61
2022/07/17 01:40:48;0.00;0.00;0.62;0.00;0.00;0.62;3.50;1.73;;;25.10;26.30;;;;;;2225615;62;20639;-62
2022/07/17 01:43:33;0.00;0.00;0.62;0.00;0.00;0.62;4.87;1.90;;;25.00;26.30;;;;;;2226475;62;20366;-61
2022/07/17 01:46:18;0.00;0.00;0.62;0.00;0.00;0.62;2.23;1.63;;;25.00;26.30;;;;;;2225806;62;20374;-60
2022/07/17 01:49:02;0.00;0.00;0.62;0.00;0.00;0.62;2.23;1.40;;;25.00;26.40;;;;;;2225495;62;20399;-61
2022/07/17 01:51:49;0.00;0.00;0.62;0.00;0.00;0.62;2.30;1.70;;;24.90;26.40;;;;;;2226336;62;20467;-62
2022/07/17 01:54:35;0.00;0.00;0.62;0.00;0.00;0.62;2.10;1.50;;;24.90;26.40;;;;;;2226197;62;20362;-59
2022/07/17 01:57:21;0.00;0.00;0.62;0.00;0.00;0.62;3.20;1.23;;;24.90;26.50;;;;;;2225552;62;20610;-61
2022/07/17 02:00:11;0.00;0.00;0.62;0.00;0.00;0.62;2.90;1.60;;;24.90;26.50;;;;;;2225685;62;20651;-64
2022/07/17 02:02:57;0.00;0.00;0.62;0.00;0.00;0.62;2.10;1.50;;;24.90;26.60;;;;;;2225746;62;20419;-62
2022/07/17 02:05:42;0.00;0.00;0.62;0.00;0.00;0.62;2.90;1.80;;;24.90;26.60;;;;;;2226317;62;20585;-63
2022/07/17 02:08:27;0.00;0.00;0.62;0.00;0.00;0.62;2.30;1.27;;;24.90;26.70;;;;;;2225854;62;20367;-63
2022/07/17 02:11:13;0.00;0.00;0.62;0.00;0.00;0.62;3.50;1.43;;;24.90;26.70;;;;;;2225714;62;20419;-62
2022/07/17 02:13:58;0.00;0.00;0.62;0.00;0.00;0.62;2.70;1.23;;;24.90;26.80;;;;;;2226198;62;20483;-63
2022/07/17 02:16:43;0.00;0.00;0.62;0.00;0.00;0.62;2.37;1.30;;;24.90;26.80;;;;;;2226133;62;20651;-62
2022/07/17 02:19:28;0.00;0.00;0.62;0.00;0.00;0.62;2.30;1.37;;;24.80;26.70;;;;;;2225650;62;20419;-61
2022/07/17 02:22:12;0.00;0.00;0.62;0.00;0.00;0.62;3.00;1.37;;;24.90;26.80;;;;;;2225621;62;20723;-63
2022/07/17 02:24:57;0.00;0.00;0.62;0.00;0.00;0.62;3.50;1.47;;;24.90;26.80;;;;;;2225985;62;20370;-61
2022/07/17 02:27:43;0.00;0.00;0.62;0.00;0.00;0.62;1.87;1.17;;;24.90;26.80;;;;;;2226235;62;20688;-61
2022/07/17 02:30:28;0.00;0.00;0.62;0.00;0.00;0.62;4.03;1.80;;;25.00;26.90;;;;;;2225812;62;20393;-60
2022/07/17 02:33:13;0.00;0.00;0.62;0.00;0.00;0.62;2.60;1.70;;;25.00;26.90;;;;;;2225235;62;20598;-63
2022/07/17 02:35:58;0.00;0.00;0.62;0.00;0.00;0.62;3.10;1.20;;;25.00;26.90;;;;;;2226224;62;20403;-62
2022/07/17 02:38:42;0.00;0.00;0.62;0.00;0.00;0.62;2.20;1.47;;;25.00;26.80;;;;;;2225492;62;20354;-62
2022/07/17 02:41:27;0.00;0.00;0.62;0.00;0.00;0.62;3.10;1.70;;;25.00;26.90;;;;;;2225138;62;20713;-63
2022/07/17 02:44:14;0.00;0.00;0.62;0.00;0.00;0.62;7.33;1.80;;;25.00;26.80;;;;;;2225881;62;20601;-61
2022/07/17 02:46:59;0.00;0.00;0.62;0.00;0.00;0.62;2.10;1.70;;;25.00;26.70;;;;;;2226099;62;20374;-60
2022/07/17 02:49:43;0.00;0.00;0.62;0.00;0.00;0.62;2.60;1.20;;;25.00;26.70;;;;;;2226070;62;20397;-62
2022/07/17 02:52:28;0.00;0.00;0.62;0.00;0.00;0.62;2.20;1.60;;;24.90;26.60;;;;;;2225789;62;20408;-61
2022/07/17 02:55:13;0.00;0.00;0.62;0.00;0.00;0.62;5.30;1.70;;;24.90;26.60;;;;;;2225548;62;20365;-62
2022/07/17 02:57:58;0.00;0.00;0.62;0.00;0.00;0.62;3.10;1.60;;;24.80;26.60;;;;;;2226064;62;20386;-62
2022/07/17 03:00:44;0.00;0.00;0.62;0.00;0.00;0.62;3.17;1.60;;;24.80;26.60;;;;;;2225638;62;20394;-60
2022/07/17 03:03:29;0.00;0.00;0.62;0.00;0.00;0.62;3.43;1.43;;;24.80;26.70;;;;;;2225413;62;20370;-62
2022/07/17 03:06:14;0.00;0.00;0.62;0.00;0.00;0.62;2.60;1.53;;;24.80;26.80;;;;;;2225981;62;20657;-63
2022/07/17 03:08:59;0.00;0.00;0.62;0.00;0.00;0.62;2.73;1.30;;;24.80;26.80;;;;;;2226090;62;20435;-62
2022/07/17 03:11:43;0.00;0.00;0.62;0.00;0.00;0.62;3.10;1.57;;;24.80;26.80;;;;;;2225774;62;20598;-61
2022/07/17 03:14:29;0.00;0.00;0.62;0.00;0.00;0.62;2.80;1.10;;;24.80;26.80;;;;;;2225700;62;20452;-61
2022/07/17 03:17:15;0.00;0.00;0.62;0.00;0.00;0.62;2.30;1.23;;;24.80;26.80;;;;;;2225468;62;20397;-63
2022/07/17 03:20:00;0.00;0.00;0.62;0.00;0.00;0.62;2.30;1.20;;;24.80;26.80;;;;;;2226194;62;20589;-61
2022/07/17 03:22:45;0.00;0.00;0.62;0.00;0.00;0.62;2.70;1.40;;;24.80;26.80;;;;;;2225513;62;20382;-61
2022/07/17 03:25:30;0.00;0.00;0.62;0.00;0.00;0.62;2.60;1.57;;;24.90;26.90;;;;;;2225340;62;20373;-63
2022/07/17 03:28:15;0.00;0.00;0.62;0.00;0.00;0.62;2.23;1.43;;;24.90;26.90;;;;;;2225849;62;20434;-63
2022/07/17 03:31:00;0.00;0.00;0.62;0.00;0.00;0.62;3.60;1.30;;;24.80;26.80;;;;;;2225770;62;20389;-63
2022/07/17 03:33:46;0.00;0.00;0.62;0.00;0.00;0.62;1.97;1.30;;;24.90;26.90;;;;;;2225556;62;20362;-61
2022/07/17 03:36:31;0.00;0.00;0.62;0.00;0.00;0.62;2.10;1.10;;;24.90;26.80;;;;;;2225626;62;20419;-62
2022/07/17 03:39:16;0.00;0.00;0.62;0.00;0.00;0.62;4.27;1.60;;;24.90;26.80;;;;;;2225301;62;20370;-61
2022/07/17 03:42:01;0.00;0.00;0.62;0.00;0.00;0.62;3.33;1.67;;;24.90;26.80;;;;;;2226188;62;20430;-63
2022/07/17 03:44:46;0.00;0.00;0.62;0.00;0.00;0.62;1.90;1.50;;;24.90;26.80;;;;;;2225545;62;20616;-62
2022/07/17 03:47:31;0.00;0.00;0.62;0.00;0.00;0.62;2.07;1.40;;;24.90;27.30;;;;;;2225281;62;20370;-62
2022/07/17 03:50:17;0.00;0.00;0.62;0.00;0.00;0.62;3.07;1.70;;;24.80;26.80;;;;;;2226150;62;20386;-64
2022/07/17 03:53:02;0.00;0.00;0.62;0.00;0.00;0.62;1.70;1.10;;;24.80;26.70;;;;;;2225817;62;20378;-63
2022/07/17 03:55:46;0.00;0.00;0.62;0.00;0.00;0.62;2.20;1.53;;;24.80;26.80;;;;;;2225561;62;20366;-62
2022/07/17 03:58:31;0.00;0.00;0.62;0.00;0.00;0.62;1.93;1.10;;;24.80;26.80;;;;;;2225336;62;20802;-62
2022/07/17 04:01:16;0.00;0.00;0.62;0.00;0.00;0.62;2.40;1.50;;;24.90;26.90;;;;;;2225704;62;20397;-63
2022/07/17 04:04:02;0.00;0.00;0.62;0.00;0.00;0.62;2.83;1.40;;;24.90;26.90;;;;;;2226716;62;20733;-62
2022/07/17 04:06:48;0.00;0.00;0.62;0.00;0.00;0.62;4.10;1.67;;;24.80;26.90;;;;;;2225886;62;20407;-63
2022/07/17 04:09:33;0.00;0.00;0.62;0.00;0.00;0.62;3.53;1.57;;;24.80;26.90;;;;;;2225939;62;20710;-63
2022/07/17 04:12:18;0.00;0.00;0.62;0.00;0.00;0.62;3.10;1.60;;;24.90;27.00;;;;;;2226670;62;20652;-64
2022/07/17 04:15:04;0.00;0.00;0.62;0.00;0.00;0.62;2.00;1.40;;;24.90;27.50;;;;;;2226327;62;20477;-63
2022/07/17 04:17:49;0.00;0.00;0.62;0.00;0.00;0.62;2.90;1.50;;;24.90;27.00;;;;;;2225993;62;20389;-63
2022/07/17 04:20:34;0.00;0.00;0.62;0.00;0.00;0.62;2.80;1.20;;;24.90;27.00;;;;;;2226215;62;20462;-63
2022/07/17 04:23:20;0.00;0.00;0.62;0.00;0.00;0.62;7.40;2.00;;;24.80;26.90;;;;;;2226332;62;20407;-62
2022/07/17 04:26:06;0.00;0.00;0.62;0.00;0.00;0.62;4.63;2.40;;;24.80;26.80;;;;;;2226671;62;20492;-62
2022/07/17 04:28:51;0.00;0.00;0.62;0.00;0.00;0.62;3.67;1.53;;;24.70;26.60;;;;;;2226078;62;20395;-61
2022/07/17 04:31:36;0.00;0.00;0.62;0.00;0.00;0.62;2.73;1.60;;;24.70;26.60;;;;;;2226041;62;20390;-63
2022/07/17 04:34:21;0.00;0.00;0.62;0.00;0.00;0.62;3.73;1.80;;;24.60;26.50;;;;;;2226603;62;20944;-61
2022/07/17 04:37:06;0.00;0.00;0.62;0.00;0.00;0.62;3.70;1.40;;;24.50;26.50;;;;;;2226183;62;20378;-63
2022/07/17 04:39:52;0.00;0.00;0.62;0.00;0.00;0.62;2.27;1.30;;;24.40;26.50;;;;;;2225505;62;20381;-61
2022/07/17 04:42:37;0.00;0.00;0.62;0.00;0.00;0.62;4.73;1.60;;;24.30;26.50;;;;;;2226033;62;20374;-63
2022/07/17 04:45:22;0.00;0.00;0.62;0.00;0.00;0.62;4.03;1.70;;;24.20;26.70;;;;;;2226435;62;20383;-63
2022/07/17 04:48:07;0.00;0.00;0.62;0.00;0.00;0.62;3.67;1.73;;;24.10;26.80;;;;;;2226255;62;20366;-61
2022/07/17 04:50:51;0.00;0.00;0.62;0.00;0.00;0.62;2.93;1.30;;;24.00;26.80;;;;;;2225868;62;20455;-63
2022/07/17 04:53:37;0.00;0.00;0.62;0.00;0.00;0.62;3.07;1.20;;;24.00;26.90;;;;;;2225962;62;20450;-63
2022/07/17 04:56:23;0.00;0.00;0.62;0.00;0.00;0.62;3.10;1.67;;;23.90;26.90;;;;;;2226415;62;20438;-61
2022/07/17 04:59:08;0.00;0.00;0.62;0.00;0.00;0.62;2.90;1.60;;;23.90;27.00;;;;;;2225920;62;20374;-62
2022/07/17 05:01:52;0.00;0.00;0.62;0.00;0.00;0.62;3.57;1.47;;;23.80;27.10;;;;;;2225841;62;20397;-64
2022/07/17 05:04:37;0.00;0.00;0.62;0.00;0.00;0.62;4.40;1.30;;;23.80;27.20;;;;;;2226225;62;20366;-64
2022/07/17 05:07:22;0.00;0.00;0.62;0.00;0.00;0.62;3.33;1.40;;;23.70;27.20;;;;;;2226566;62;20366;-64
2022/07/17 05:10:08;0.00;0.00;0.62;0.00;0.00;0.62;2.53;1.50;;;23.70;27.30;;;;;;2226188;62;20363;-63
2022/07/17 05:12:54;0.00;0.00;0.62;0.00;0.00;0.62;5.73;1.67;;;23.70;27.40;;;;;;2226017;62;20402;-64
2022/07/17 05:15:39;0.00;0.00;0.62;0.00;0.00;0.62;4.40;1.77;;;23.60;27.40;;;;;;2225946;62;20362;-63
2022/07/17 05:18:24;0.00;0.00;0.62;0.00;0.00;0.62;7.63;2.33;;;23.60;27.50;;;;;;2226150;62;20475;-62
2022/07/17 05:21:09;0.00;0.00;0.62;0.00;0.00;0.62;3.83;1.83;;;23.50;27.50;;;;;;2225991;62;20382;-63
2022/07/17 05:23:54;0.00;0.00;0.62;0.00;0.00;0.62;5.40;1.80;;;23.50;27.50;;;;;;2225693;62;20394;-63
2022/07/17 05:26:39;0.00;0.00;0.62;0.00;0.00;0.62;4.10;1.83;;;23.50;27.60;;;;;;2226276;62;20369;-62
2022/07/17 05:29:25;0.00;0.00;0.62;0.00;0.00;0.62;4.23;1.60;;;23.40;28.20;;;;;;2226254;62;20487;-63
2022/07/17 05:32:10;0.00;0.00;0.62;0.00;0.00;0.62;3.10;1.40;;;23.40;27.70;;;;;;2226071;62;20417;-63
2022/07/17 05:34:55;0.00;0.00;0.62;0.00;0.00;0.62;5.13;1.60;;;23.30;28.30;;;;;;2225947;62;20362;-63
2022/07/17 05:37:40;0.00;0.00;0.62;0.00;0.00;0.62;2.97;1.40;;;23.30;27.80;;;;;;2225548;62;20405;-64
2022/07/17 05:40:25;0.00;0.00;0.62;0.00;0.00;0.62;2.97;1.70;;;23.30;27.80;;;;;;2226239;62;20382;-64
2022/07/17 05:43:10;0.00;0.00;0.62;0.00;0.00;0.62;2.13;1.40;;;23.20;27.90;;;;;;2225981;62;20373;-62
2022/07/17 05:45:57;0.00;0.00;0.62;0.00;0.00;0.62;4.63;1.30;;;23.20;28.00;;;;;;2225543;62;20397;-62
2022/07/17 05:48:42;0.00;0.00;0.62;0.00;0.00;0.62;6.53;1.53;;;23.10;28.00;;;;;;2226078;62;20733;-63
2022/07/17 05:51:27;0.00;0.00;0.62;0.00;0.00;0.62;3.20;1.60;;;23.10;28.10;;;;;;2226077;62;20401;-64
2022/07/17 05:54:12;0.00;0.00;0.62;0.00;0.00;0.62;2.33;1.30;;;23.10;28.20;;;;;;2225563;62;20358;-63
2022/07/17 05:56:57;0.00;0.00;0.62;0.00;0.00;0.62;4.20;1.80;;;23.10;28.30;;;;;;2225753;62;20502;-63
2022/07/17 05:59:42;0.00;0.00;0.62;0.00;0.00;0.62;3.10;1.57;;;23.10;28.90;;;;;;2225497;62;20381;-63
2022/07/17 06:02:30;0.00;0.00;0.62;0.00;0.00;0.62;2.97;1.50;;;23.10;28.40;;;;;;2226158;62;20410;-61
2022/07/17 06:05:15;0.00;0.00;0.62;0.00;0.00;0.62;3.97;1.77;;;23.00;28.50;;;;;;2225608;62;20373;-63
2022/07/17 06:08:00;0.00;0.00;0.62;0.00;0.00;0.62;3.77;1.57;;;23.00;28.50;;;;;;2224891;62;20578;-63
2022/07/17 06:10:44;0.00;0.00;0.62;0.00;0.00;0.62;2.30;1.40;;;23.00;28.50;;;;;;2226400;62;20417;-63
2022/07/17 06:13:29;0.00;0.00;0.62;0.00;0.00;0.62;3.73;1.40;;;23.10;28.60;;;;;;2225878;62;20763;-63
2022/07/17 06:16:13;0.00;0.00;0.62;0.00;0.00;0.62;4.10;1.70;;;23.10;28.60;;;;;;2225484;62;20492;-63
2022/07/17 06:18:59;0.00;0.00;0.62;0.00;0.00;0.62;2.80;1.43;;;23.10;28.50;;;;;;2225636;62;20430;-64
2022/07/17 06:21:44;0.00;0.00;0.62;0.00;0.00;0.62;7.17;1.70;;;23.00;28.50;;;;;;2225851;62;20500;-61
2022/07/17 06:24:29;0.00;0.00;0.62;0.00;0.00;0.62;4.07;1.70;;;23.10;28.50;;;;;;2226032;62;20366;-61
2022/07/17 06:27:14;0.00;0.00;0.62;0.00;0.00;0.62;2.83;1.50;;;23.10;28.50;;;;;;2225622;62;20366;-62
2022/07/17 06:29:59;0.00;0.00;0.62;0.00;0.00;0.62;2.37;1.57;;;23.00;28.50;;;;;;2225419;62;20792;-64
2022/07/17 06:32:44;0.00;0.00;0.62;0.00;0.00;0.62;4.50;1.83;;;23.00;28.70;;;;;;2226270;62;20441;-60
2022/07/17 06:35:30;0.00;0.00;0.62;0.00;0.00;0.62;2.80;1.47;;;23.00;28.70;;;;;;2225840;62;20449;-59
2022/07/17 06:38:15;0.00;0.00;0.62;0.00;0.00;0.62;2.50;1.43;;;22.90;28.60;;;;;;2225366;62;20619;-62
2022/07/17 06:41:00;0.00;0.00;0.62;0.00;0.00;0.62;4.00;1.40;;;22.90;28.60;;;;;;2225800;62;20382;-62
2022/07/17 06:43:44;0.00;0.00;0.62;0.00;0.00;0.62;5.20;1.60;;;22.90;28.60;;;;;;2226007;62;20415;-59
2022/07/17 06:46:29;0.00;0.00;0.62;0.00;0.00;0.62;3.47;1.90;;;22.90;28.60;;;;;;2226125;62;20377;-62
2022/07/17 06:49:13;0.00;0.00;0.62;0.00;0.00;0.62;5.90;1.83;;;22.90;28.60;;;;;;2225410;62;20394;-63
2022/07/17 06:51:59;0.00;0.00;0.62;0.00;0.00;0.62;4.63;1.93;;;22.90;28.60;;;;;;2225372;62;20647;-62
2022/07/17 06:54:44;0.00;0.00;0.62;0.00;0.00;0.62;3.30;1.43;;;22.90;28.60;;;;;;2225785;62;20366;-63
2022/07/17 06:57:30;0.00;0.00;0.62;0.00;0.00;0.62;3.57;1.50;;;22.80;28.50;;;;;;2225376;62;20414;-61
2022/07/17 07:00:17;0.00;0.00;0.62;0.00;0.00;0.62;3.03;1.50;;;22.80;28.50;;;;;;2225376;62;20416;-63
2022/07/17 07:03:02;0.00;0.00;0.62;0.00;0.00;0.62;2.20;1.40;;;22.80;28.50;;;;;;2225811;62;20733;-63
2022/07/17 07:05:47;0.00;0.00;0.62;0.00;0.00;0.62;3.40;1.73;;;22.80;28.50;;;;;;2226013;62;20464;-61
2022/07/17 07:08:35;0.00;0.00;0.62;0.00;0.00;0.62;2.77;1.37;;;22.80;28.50;;;;;;2225452;62;20358;-61
2022/07/17 07:11:20;0.00;0.00;0.62;0.00;0.00;0.62;5.20;1.40;;;22.80;28.50;;;;;;2225769;62;20401;-63
2022/07/17 07:14:06;0.00;0.00;0.62;0.00;0.00;0.62;3.60;1.37;;;22.90;28.60;;;;;;2225325;62;20410;-63
2022/07/17 07:16:51;0.00;0.00;0.62;0.00;0.00;0.62;3.40;1.50;;;22.90;28.60;;;;;;2226099;62;20414;-62
2022/07/17 07:19:36;0.00;0.00;0.62;0.00;0.00;0.62;3.30;1.50;;;22.90;28.60;;;;;;2225494;62;20387;-62
2022/07/17 07:22:21;0.00;0.00;0.62;0.00;0.00;0.62;4.43;1.97;;;22.90;28.60;;;;;;2225325;62;20471;-63
2022/07/17 07:25:08;0.00;0.00;0.62;0.00;0.00;0.62;4.27;1.77;;;22.90;28.60;;;;;;2225820;62;20470;-61
2022/07/17 07:27:54;0.00;0.00;0.62;0.00;0.00;0.62;2.13;1.30;;;22.90;28.60;;;;;;2226014;62;20378;-61
2022/07/17 07:30:38;0.00;0.00;0.62;0.00;0.00;0.62;4.03;1.30;;;22.90;28.70;;;;;;2225528;62;20382;-62
2022/07/17 07:33:23;0.00;0.00;0.62;0.00;0.00;0.62;3.40;1.70;;;22.90;28.60;;;;;;2225430;62;20802;-63
2022/07/17 07:36:08;0.00;0.00;0.62;0.00;0.00;0.62;6.07;1.47;;;22.90;28.70;;;;;;2225612;62;20434;-64
2022/07/17 07:38:53;0.00;0.00;0.62;0.00;0.00;0.62;3.40;1.60;;;22.90;28.80;;;;;;2226511;62;20392;-65
2022/07/17 07:41:41;0.00;0.00;0.62;0.00;0.00;0.62;3.07;1.27;;;22.90;28.80;;;;;;2226133;62;20381;-62
2022/07/17 07:44:26;0.00;0.00;0.62;0.00;0.00;0.62;5.47;1.70;;;23.00;28.90;;;;;;2225886;62;20378;-65
2022/07/17 07:47:11;0.00;0.00;0.62;0.00;0.00;0.62;2.90;1.33;;;23.00;28.80;;;;;;2226181;62;20361;-64
2022/07/17 07:49:56;0.00;0.00;0.62;0.00;0.00;0.62;2.77;1.60;;;23.00;28.70;;;;;;2226485;62;20374;-65
2022/07/17 07:52:41;0.00;0.00;0.62;0.00;0.00;0.62;2.20;1.43;;;23.10;28.80;;;;;;2226136;62;20366;-65
2022/07/17 07:55:26;0.00;0.00;0.62;0.00;0.00;0.62;2.07;1.20;;;23.10;28.80;;;;;;2226129;62;20370;-64
2022/07/17 07:58:13;0.00;0.00;0.62;0.00;0.00;0.62;8.90;2.10;;;23.10;28.80;;;;;;2225624;62;20800;-66
2022/07/17 08:00:58;0.00;0.00;0.62;0.00;0.00;0.62;4.47;1.30;;;23.20;28.80;;;;;;2226423;62;20463;-65
2022/07/17 08:03:43;0.00;0.00;0.62;0.00;0.00;0.62;5.50;1.93;;;23.20;28.80;;;;;;2226008;62;20747;-65
2022/07/17 08:06:27;0.00;0.00;0.62;0.00;0.00;0.62;1.57;1.07;;;23.20;28.80;;;;;;2226068;62;20346;-63
2022/07/17 08:09:12;0.00;0.00;0.62;0.00;0.00;0.62;3.77;1.37;;;23.20;28.80;;;;;;2226459;62;20362;-65
2022/07/17 08:11:57;0.00;0.00;0.62;0.00;0.00;0.62;8.83;1.90;;;23.20;28.80;;;;;;2226202;62;20389;-67
2022/07/17 08:14:43;0.00;0.00;0.62;0.00;0.00;0.62;2.60;1.37;;;23.20;28.80;;;;;;2226106;62;20363;-66
2022/07/17 08:17:57;0.00;0.00;0.62;0.00;0.00;0.62;4.20;2.00;;;23.30;28.80;;;;;;2226074;62;20405;-64
2022/07/17 08:20:43;0.00;0.00;0.62;0.00;0.00;0.62;5.53;1.83;;;23.30;29.30;;;;;;2225771;62;20737;-63
2022/07/17 08:23:28;0.00;0.00;0.62;0.00;0.00;0.62;2.83;1.60;;;23.30;28.90;;;;;;2226568;62;20478;-67
2022/07/17 08:26:12;0.00;0.00;0.62;0.00;0.00;0.62;4.03;1.80;;;23.30;28.90;;;;;;2226147;62;20427;-63
2022/07/17 08:28:57;0.00;0.00;0.62;0.00;0.00;0.62;6.40;2.07;;;23.30;28.90;;;;;;2225583;62;20574;-64
2022/07/17 08:31:43;0.00;0.00;0.62;0.00;0.00;0.62;4.63;1.67;;;23.30;28.90;;;;;;2226334;62;20390;-65
2022/07/17 08:34:28;0.00;0.00;0.62;0.00;0.00;0.62;2.33;1.43;;;23.40;29.00;;;;;;2226397;62;20410;-63
2022/07/17 08:37:13;0.00;0.00;0.62;0.00;0.00;0.62;6.23;1.93;;;23.40;29.00;;;;;;2225863;62;20458;-65
2022/07/17 08:39:58;0.00;0.00;0.62;0.00;0.00;0.62;3.27;1.83;;;23.50;29.10;;;;;;2226078;62;20350;-65
2022/07/17 08:42:43;0.00;0.00;0.62;0.00;0.00;0.62;5.00;1.60;;;23.50;29.00;;;;;;2225840;62;20439;-61
2022/07/17 08:45:28;0.00;0.00;0.62;0.00;0.00;0.62;4.90;1.67;;;23.50;28.90;;;;;;2226414;62;20713;-65
2022/07/17 08:48:17;0.00;0.00;0.62;0.00;0.00;0.62;3.20;1.40;;;23.60;28.90;;;;;;2225892;62;20384;-66
2022/07/17 08:51:03;0.00;0.00;0.62;0.00;0.00;0.62;2.80;1.47;;;23.60;28.90;;;;;;2225744;62;20869;-66
2022/07/17 08:53:49;0.00;0.00;0.62;0.00;0.00;0.62;2.37;1.50;;;23.70;28.90;;;;;;2226256;62;20403;-68
2022/07/17 08:56:34;0.00;0.00;0.62;0.00;0.00;0.62;2.50;1.27;;;23.70;28.80;;;;;;2226300;62;20416;-63
2022/07/17 08:59:19;0.00;0.00;0.62;0.00;0.00;0.62;3.70;1.50;;;23.70;28.80;;;;;;2225684;62;20612;-65
2022/07/17 09:02:05;0.00;0.00;0.62;0.00;0.00;0.62;3.70;1.40;;;23.70;28.70;;;;;;2225849;62;20638;-65
2022/07/17 09:04:55;0.00;0.00;0.62;0.00;0.00;0.62;2.90;1.50;;;23.80;28.80;;;;;;2225695;62;20727;-66
2022/07/17 09:07:46;0.00;0.00;0.62;0.00;0.00;0.62;3.93;1.60;;;23.80;28.90;;;;;;2226320;62;20734;-64
2022/07/17 09:10:38;0.00;0.00;0.62;0.00;0.00;0.62;3.87;1.73;;;23.80;28.80;;;;;;2225961;62;20431;-65
2022/07/17 09:13:26;0.00;0.00;0.62;0.00;0.00;0.62;5.10;1.87;;;23.90;28.90;;;;;;2225616;62;20408;-66
2022/07/17 09:16:12;0.00;0.00;0.62;0.00;0.00;0.62;2.67;1.27;;;23.90;29.10;;;;;;2226276;62;20374;-63
2022/07/17 09:18:59;0.00;0.00;0.62;0.00;0.00;0.62;3.80;1.70;;;23.90;29.10;;;;;;2226223;62;20390;-65
2022/07/17 09:21:45;0.00;0.00;0.62;0.00;0.00;0.62;3.83;1.93;;;24.00;29.20;;;;;;2226011;62;20382;-67
2022/07/17 09:24:41;0.00;0.00;0.62;0.00;0.00;0.62;3.93;2.03;;;24.00;29.30;;;;;;2225750;62;20710;-66
2022/07/17 09:27:32;0.00;0.00;0.62;0.00;0.00;0.62;4.20;1.67;;;24.00;29.20;;;;;;2225337;62;20363;-66
2022/07/17 09:30:17;0.00;0.00;0.62;0.00;0.00;0.62;3.63;1.53;;;24.00;29.10;;;;;;2226382;62;20641;-64
2022/07/17 09:33:04;0.00;0.00;0.62;0.00;0.00;0.62;6.87;1.90;;;24.10;29.20;;;;;;2225744;62;20658;-67
2022/07/17 09:35:52;0.00;0.00;0.62;0.00;0.00;0.62;5.70;1.77;;;24.10;29.20;;;;;;2225616;62;20382;-64
2022/07/17 09:38:40;0.00;0.00;0.62;0.00;0.00;0.62;3.00;1.50;;;24.10;29.10;;;;;;2225910;62;20390;-63
2022/07/17 09:41:26;0.00;0.00;0.62;0.00;0.00;0.62;4.27;1.50;;;24.20;29.10;;;;;;2225789;62;20385;-64
2022/07/17 09:44:12;0.00;0.00;0.62;0.00;0.00;0.62;8.23;2.00;;;24.20;29.00;;;;;;2226117;62;20415;-63
2022/07/17 09:46:56;0.00;0.00;0.62;0.00;0.00;0.62;3.33;1.47;;;24.20;29.00;;;;;;2225745;62;20754;-63
2022/07/17 09:49:42;0.00;0.00;0.62;0.00;0.00;0.62;3.60;1.30;;;24.20;28.90;;;;;;2225664;62;20549;-64
2022/07/17 09:52:30;0.00;0.00;0.62;0.00;0.00;0.62;2.20;1.50;;;24.30;29.00;;;;;;2225829;62;20366;-66
2022/07/17 09:55:17;0.00;0.00;0.62;0.00;0.00;0.62;3.37;1.87;;;24.30;28.90;;;;;;2224990;62;20423;-64
2022/07/17 09:58:03;0.00;0.00;0.62;0.00;0.00;0.62;4.57;2.20;;;24.30;28.80;;;;;;2225027;62;20390;-63
2022/07/17 10:00:48;0.00;0.00;0.62;0.00;0.00;0.62;3.37;1.40;;;24.40;28.90;;;;;;2225765;62;20401;-64
2022/07/17 10:03:34;0.00;0.00;0.62;0.00;0.00;0.62;3.67;1.20;;;24.40;29.40;;;;;;2226062;62;20362;-62
2022/07/17 10:06:20;0.00;0.00;0.62;0.00;0.00;0.62;5.83;1.60;;;24.40;28.80;;;;;;2226278;62;20370;-65
2022/07/17 10:09:05;0.00;0.00;0.62;0.00;0.00;0.62;4.67;1.47;;;24.50;28.80;;;;;;2225326;62;20386;-67
2022/07/17 10:11:52;0.00;0.00;0.62;0.00;0.00;0.62;3.37;1.50;;;24.50;28.80;;;;;;2225397;62;20439;-63
2022/07/17 10:14:38;0.00;0.00;0.62;0.00;0.00;0.62;3.47;1.47;;;24.60;28.70;;;;;;2226276;62;20367;-64
2022/07/17 10:17:23;0.00;0.00;0.62;0.00;0.00;0.62;2.00;1.07;;;24.60;28.60;;;;;;2225383;62;20394;-63
2022/07/17 10:20:10;0.00;0.00;0.62;0.00;0.00;0.62;3.80;1.53;;;24.60;28.60;;;;;;2225422;62;20436;-64
2022/07/17 10:22:55;0.00;0.00;0.62;0.00;0.00;0.62;6.07;1.37;;;24.60;28.50;;;;;;2225824;62;20386;-64
2022/07/17 10:25:40;0.00;0.00;0.62;0.00;0.00;0.62;4.37;1.57;;;24.60;28.40;;;;;;2225962;62;20480;-65
2022/07/17 10:28:41;0.00;0.00;0.62;0.00;0.00;0.62;3.80;1.43;;;24.70;28.40;;;;;;2225754;62;20358;-63
2022/07/17 10:31:27;0.00;0.00;0.62;0.00;0.00;0.62;2.53;1.53;;;24.70;28.40;;;;;;2225450;62;20449;-65
2022/07/17 10:34:12;0.00;0.00;0.62;0.00;0.00;0.62;2.57;1.53;;;24.70;28.40;;;;;;2224996;62;20438;-65
2022/07/17 10:36:57;0.00;0.00;0.62;0.00;0.00;0.62;3.23;1.70;;;24.70;28.40;;;;;;2226179;62;20407;-65
2022/07/17 10:39:53;0.00;0.00;0.62;0.00;0.00;0.62;2.27;1.40;;;24.70;28.90;;;;;;2225719;62;20573;-64
2022/07/17 10:42:54;0.00;0.00;0.62;0.00;0.00;0.62;2.03;1.40;;;24.80;28.50;;;;;;2225261;62;20439;-66
2022/07/17 10:45:42;0.00;0.00;0.62;0.00;0.00;0.62;4.97;1.57;;;24.80;28.40;;;;;;2225301;62;20391;-68
2022/07/17 10:48:27;0.00;0.00;0.62;0.00;0.00;0.62;3.33;1.70;;;24.80;28.40;;;;;;2225354;62;20411;-65
2022/07/17 10:51:12;0.00;0.00;0.62;0.00;0.00;0.62;4.50;1.60;;;24.80;28.40;;;;;;2226076;62;20793;-67
2022/07/17 10:54:00;0.00;0.00;0.62;0.00;0.00;0.62;2.80;1.37;;;24.80;28.50;;;;;;2225640;62;20365;-62